Pocatello Regional Airport
KPIH : now visible

Airfield :











YOU CAN JOIN US ON...

 
LOGIN :

Register | Disclaimer

   EN    FR    IT 

 









Legend :    VFR   Marginal VFR   IFR   Intensive IFR   Very Intensive IFR
Visi :
Ceiling :
>= 8 km
>= 3000ft
5 to 8 km
1000 to 3000 ft
1500m to 5 km
500 to 1000 ft
800 to 1500m
200 to 500 ft
< 800m
< 200 ft
Symbols :   Thunderstorms  Fog  Heavy snow  Heavy precipitations  Wind > 20 kt






- Airport Elevation : 4452 ft
- IATA code : PIH


KPIH - Pocatello Regional

CURRENT METAR :
  • 290953Z AUTO 32003KT 10SM SCT003 OVC010 00/M01 A3016 RMK AO2 UPE07 SLP226 P0001 T00001006 $

EXPIRED METARs :
  • 290853Z AUTO 25003KT 5SM UP BR OVC004 00/M01 A3014 RMK AO2 UPB05E17B39FZRAB17E30SNB30E39 SLP222 P0000 60002 I1001 I3001 T00001006 53005 $
  • 290836Z AUTO 29003KT 4SM -SN BR OVC003 00/M01 A3014 RMK AO2 UPB05E17FZRAB17E30SNB30 P0000 I1001 T00001006 $
  • 290823Z AUTO 31003KT 4SM -FZRA BR OVC003 00/M01 A3014 RMK AO2 UPB05E17FZRAB17 P0000 I1001 T00001006 $
  • 290810Z AUTO 33003KT 5SM UP BR OVC004 00/M01 A3013 RMK AO2 UPB05 CIG 002V006 P0000 I1000 T00001006 $
  • 290753Z AUTO 34005KT 9SM FEW002 OVC008 00/M01 A3013 RMK AO2 RAB04E14B32E47SNB14E32 CIG 006V011 SLP217 P0002 T00001006 $
  • 290734Z AUTO 25007KT 6SM -RA BR BKN008 OVC019 01/M01 A3012 RMK AO2 RAB04E14B32SNB14E32 P0001 T00061006 $
  • 290724Z AUTO 24007KT 3SM -SN BR FEW008 BKN017 OVC036 01/M01 A3013 RMK AO2 RAB04E14SNB14 P0001 T00061006 $

TAF KPIH
Valid from the 29 at 08:00 until the 30 at 06:00 UTC


290819Z 2908/3006 33006KT 6SM BR VCSH BKN008 OVC025
TEMPO 2908/2912 4SM BR OVC004
FM291200 33007KT 2SM -SN BKN006 OVC015
FM291500 26009KT P6SM SCT010 BKN030
FM300200 20009KT P6SM BKN030



MET'MAP, your aeronautical weather chart ! - Copyright ORBIFLY December 2007 - Disclaimer

ORBIFLY MET'MAP TEAM :

Programming & Development : Alexandra Zaïnal
Concept & original design : Baudouin d'Aumeries
Assistance for programming : Marc-Olivier Méhu
Technical & hardware support : Manuel Goepfert

Contact : metmap@orbifly.com




SOURCES & CREDITS :

   NOAA       Earth
Advisory